createdAt,value
2023-05-24T00:00:53.352Z,100038.69
2023-05-24T00:03:59.259Z,100043.50
2023-05-24T00:07:04.976Z,100049.69
2023-05-24T00:10:08.318Z,100059.91
2023-05-24T00:13:10.992Z,100058.41
2023-05-24T00:16:13.496Z,100054.91
2023-05-24T00:19:18.820Z,100068.47
2023-05-24T00:22:21.751Z,100040.38
2023-05-24T00:25:24.249Z,100032.44
2023-05-24T00:28:26.899Z,100078.19
2023-05-24T00:31:29.501Z,100088.19
2023-05-24T00:34:31.975Z,100081.59
2023-05-24T00:37:34.465Z,100052.38
2023-05-24T00:40:36.894Z,100073.28
2023-05-24T00:43:39.398Z,100076.00
2023-05-24T00:46:41.970Z,100050.47
2023-05-24T00:49:44.774Z,100048.53
2023-05-24T00:52:49.598Z,100055.38
2023-05-24T00:55:51.983Z,100067.97
2023-05-24T00:58:56.136Z,100076.97
2023-05-24T01:01:58.805Z,100061.97
2023-05-24T01:05:01.495Z,100060.06
2023-05-24T01:08:11.183Z,100070.69
2023-05-24T01:11:19.300Z,100071.50
2023-05-24T01:15:05.144Z,100075.19
2023-05-24T01:18:14.151Z,100053.31
2023-05-24T01:21:38.658Z,100076.38
2023-05-24T01:25:04.236Z,100055.78
2023-05-24T01:28:08.762Z,100056.47
2023-05-24T01:31:14.662Z,100074.84
2023-05-24T01:34:17.056Z,100065.56
2023-05-24T01:37:19.694Z,100066.66
2023-05-24T01:40:22.282Z,100051.41
2023-05-24T01:43:33.855Z,100053.69
2023-05-24T01:46:38.061Z,100050.25
2023-05-24T01:49:48.725Z,100037.97
2023-05-24T01:52:52.783Z,100038.22
2023-05-24T01:55:57.309Z,100063.75
2023-05-24T01:59:02.545Z,100057.56
2023-05-24T02:02:05.993Z,100039.06
2023-05-24T02:05:10.154Z,100056.03
2023-05-24T02:08:12.972Z,100053.28
2023-05-24T02:11:15.404Z,100028.84
2023-05-24T02:14:19.829Z,100032.88
2023-05-24T02:17:22.678Z,100036.63
2023-05-24T02:20:25.312Z,100053.44
2023-05-24T02:23:28.317Z,100057.72
2023-05-24T02:26:30.778Z,100055.22
2023-05-24T02:29:33.245Z,100032.03
2023-05-24T02:32:36.618Z,100035.41
2023-05-24T02:35:41.457Z,100046.72
2023-05-24T02:38:43.844Z,100049.75
2023-05-24T02:41:46.289Z,100030.47
2023-05-24T02:44:49.602Z,100055.09
2023-05-24T02:47:52.136Z,100047.81
2023-05-24T02:50:54.632Z,100059.34
2023-05-24T02:53:57.048Z,100051.63
2023-05-24T02:56:59.432Z,100066.03
2023-05-24T03:00:02.096Z,100060.91
2023-05-24T03:03:05.873Z,100070.97
2023-05-24T03:06:08.515Z,100060.06
2023-05-24T03:09:10.927Z,100057.13
2023-05-24T03:12:14.128Z,100052.66
2023-05-24T03:15:16.581Z,100049.94
2023-05-24T03:18:19.045Z,100065.88
2023-05-24T03:21:23.385Z,100050.78
2023-05-24T03:24:26.144Z,100053.41
2023-05-24T03:27:28.677Z,100065.16
2023-05-24T03:30:31.182Z,100071.28
2023-05-24T03:33:35.560Z,100062.00
2023-05-24T03:36:38.025Z,100049.22
2023-05-24T03:39:40.598Z,100039.22
2023-05-24T03:43:06.125Z,100030.63
2023-05-24T03:46:18.682Z,100059.94
2023-05-24T03:49:21.107Z,100049.69
2023-05-24T03:52:23.744Z,100055.25
2023-05-24T03:55:26.311Z,100066.16
2023-05-24T03:58:28.807Z,100068.44
2023-05-24T04:01:34.576Z,100053.00
2023-05-24T04:04:37.687Z,100072.00
2023-05-24T04:07:40.808Z,100059.78
2023-05-24T04:10:43.979Z,100079.66
2023-05-24T04:13:47.551Z,100062.66
2023-05-24T04:16:49.969Z,100088.34
2023-05-24T04:19:55.089Z,100094.03
2023-05-24T04:22:57.622Z,100099.72
2023-05-24T04:26:00.113Z,100100.81
2023-05-24T04:29:03.723Z,100099.28
2023-05-24T04:32:07.136Z,100083.22
2023-05-24T04:35:09.712Z,100075.41
2023-05-24T04:38:12.841Z,100105.25
2023-05-24T04:41:15.223Z,100074.84
2023-05-24T04:44:17.689Z,100075.91
2023-05-24T04:47:20.076Z,100085.91
2023-05-24T04:50:22.521Z,100099.56
2023-05-24T04:53:27.891Z,100090.34
2023-05-24T04:56:38.532Z,100111.75
2023-05-24T04:59:41.076Z,100102.06
2023-05-24T05:02:43.551Z,100105.41
2023-05-24T05:05:46.641Z,100106.38
2023-05-24T05:08:49.039Z,100108.09
2023-05-24T05:11:51.524Z,100098.75
2023-05-24T05:14:54.511Z,100112.66
2023-05-24T05:17:57.350Z,100079.53
2023-05-24T05:20:59.738Z,100105.56
2023-05-24T05:24:03.174Z,100118.16
2023-05-24T05:27:06.221Z,100130.09
2023-05-24T05:30:09.042Z,100124.34
2023-05-24T05:33:11.641Z,100119.69
2023-05-24T05:36:14.183Z,100111.69
2023-05-24T05:39:16.734Z,100124.84
2023-05-24T05:42:19.252Z,100111.47
2023-05-24T05:45:21.705Z,100098.31
2023-05-24T05:48:24.190Z,100109.44
2023-05-24T05:51:26.848Z,100135.13
2023-05-24T05:54:29.382Z,100138.00
2023-05-24T05:57:31.777Z,100112.94
2023-05-24T06:00:34.175Z,100132.88
2023-05-24T06:03:36.792Z,100131.34
2023-05-24T06:06:39.587Z,100151.41
2023-05-24T06:09:42.099Z,100140.16
2023-05-24T06:12:44.471Z,100132.28
2023-05-24T06:15:47.102Z,100159.31
2023-05-24T06:19:01.363Z,100141.63
2023-05-24T06:22:08.128Z,100155.50
2023-05-24T06:25:10.524Z,100176.56
2023-05-24T06:28:13.065Z,100165.22
2023-05-24T06:31:15.504Z,100161.66
2023-05-24T06:34:21.394Z,100168.72
2023-05-24T06:37:25.606Z,100169.78
2023-05-24T06:40:28.059Z,100175.75
2023-05-24T06:43:30.873Z,100172.28
2023-05-24T06:46:33.443Z,100173.59
2023-05-24T06:49:36.308Z,100185.09
2023-05-24T06:52:38.743Z,100203.53
2023-05-24T06:55:41.222Z,100207.97
2023-05-24T06:58:44.179Z,100205.13
2023-05-24T07:01:46.773Z,100213.66
2023-05-24T07:04:49.304Z,100213.47
2023-05-24T07:07:51.815Z,100181.22
2023-05-24T07:10:54.775Z,100200.69
2023-05-24T07:13:57.914Z,100221.31
2023-05-24T07:17:00.504Z,100215.53
2023-05-24T07:20:03.933Z,100233.09
2023-05-24T07:23:07.188Z,100218.94
2023-05-24T07:26:10.073Z,100226.94
2023-05-24T07:29:12.754Z,100237.50
2023-05-24T07:32:15.395Z,100229.91
2023-05-24T07:35:18.093Z,100225.06
2023-05-24T07:38:21.286Z,100234.78
2023-05-24T07:41:27.217Z,100230.84
2023-05-24T07:44:30.026Z,100240.81
2023-05-24T07:47:32.509Z,100247.03
2023-05-24T07:50:34.978Z,100209.38
2023-05-24T07:53:37.836Z,100245.66
2023-05-24T07:56:42.451Z,100249.56
2023-05-24T07:59:44.862Z,100244.16
2023-05-24T08:02:47.508Z,100232.59
2023-05-24T08:05:50.079Z,100254.16
2023-05-24T08:08:52.631Z,100237.81
2023-05-24T08:11:55.129Z,100247.53
2023-05-24T08:14:57.699Z,100266.88
2023-05-24T08:18:00.330Z,100269.84
2023-05-24T08:21:02.871Z,100269.47
2023-05-24T08:24:07.673Z,100254.69
2023-05-24T08:27:12.406Z,100277.03
2023-05-24T08:30:14.900Z,100261.94
2023-05-24T08:33:17.570Z,100280.56
2023-05-24T08:36:20.060Z,100289.81
2023-05-24T08:39:22.762Z,100284.94
2023-05-24T08:42:26.184Z,100289.31
2023-05-24T08:45:36.870Z,100265.84
2023-05-24T08:48:47.157Z,100293.88
2023-05-24T08:51:51.991Z,100277.28
2023-05-24T08:54:55.380Z,100298.25
2023-05-24T08:57:59.859Z,100286.78
2023-05-24T09:01:02.628Z,100299.69
2023-05-24T09:04:06.366Z,100290.44
2023-05-24T09:07:09.276Z,100316.06
2023-05-24T09:10:11.730Z,100320.75
2023-05-24T09:13:15.856Z,100299.97
2023-05-24T09:16:18.539Z,100321.28
2023-05-24T09:19:21.154Z,100301.03
2023-05-24T09:22:26.057Z,100323.03
2023-05-24T09:25:29.935Z,100328.34
2023-05-24T09:28:32.929Z,100271.31
2023-05-24T09:31:39.208Z,100323.19
2023-05-24T09:34:43.811Z,100312.53
2023-05-24T09:37:47.138Z,100319.81
2023-05-24T09:41:04.405Z,100312.34
2023-05-24T09:44:07.259Z,100322.22
2023-05-24T09:47:09.849Z,100338.13
2023-05-24T09:50:17.519Z,100321.59
2023-05-24T09:53:22.456Z,100344.41
2023-05-24T09:56:25.163Z,100344.63
2023-05-24T09:59:28.197Z,100343.38
2023-05-24T10:02:41.352Z,100344.66
2023-05-24T10:05:48.449Z,100341.91
2023-05-24T10:08:57.135Z,100333.63
2023-05-24T10:12:07.287Z,100335.25
2023-05-24T10:15:10.935Z,100348.38
2023-05-24T10:18:14.309Z,100337.56
2023-05-24T10:21:20.147Z,100325.91
2023-05-24T10:24:31.193Z,100328.56
2023-05-24T10:27:33.983Z,100330.03
2023-05-24T10:30:54.200Z,100333.47
2023-05-24T10:34:07.110Z,100301.88
2023-05-24T10:37:11.148Z,100305.06
2023-05-24T10:40:17.868Z,100324.00
2023-05-24T10:43:22.155Z,100308.88
2023-05-24T10:46:24.668Z,100321.81
2023-05-24T10:49:27.038Z,100329.47
2023-05-24T10:52:36.403Z,100319.22
2023-05-24T10:56:09.566Z,100334.56
2023-05-24T10:59:35.060Z,100324.47
2023-05-24T11:02:37.670Z,100316.09
2023-05-24T11:05:53.021Z,100335.63
2023-05-24T11:09:00.418Z,100322.38
2023-05-24T11:12:07.665Z,100333.47
2023-05-24T11:15:10.947Z,100322.63
2023-05-24T11:18:14.209Z,100322.56
2023-05-24T11:21:17.138Z,100323.03
2023-05-24T11:24:22.021Z,100324.81
2023-05-24T11:27:25.546Z,100335.78
2023-05-24T11:30:28.054Z,100315.19
2023-05-24T11:33:30.450Z,100330.97
2023-05-24T11:36:33.657Z,100316.78
2023-05-24T11:39:37.551Z,100324.13
2023-05-24T11:42:41.143Z,100311.16
2023-05-24T11:45:45.533Z,100324.13
2023-05-24T11:48:57.625Z,100299.44
2023-05-24T11:52:01.713Z,100321.94
2023-05-24T11:55:04.758Z,100304.66
2023-05-24T11:58:14.457Z,100315.00
2023-05-24T12:01:28.982Z,100307.06
2023-05-24T12:04:33.205Z,100297.22
2023-05-24T12:07:36.688Z,100309.06
2023-05-24T12:10:41.559Z,100307.19
2023-05-24T12:13:44.531Z,100295.97
2023-05-24T12:16:47.296Z,100294.75
2023-05-24T12:19:51.922Z,100300.25
2023-05-24T12:22:55.782Z,100297.38
2023-05-24T12:26:02.002Z,100279.38
2023-05-24T12:29:10.175Z,100295.53
2023-05-24T12:32:13.995Z,100293.47
2023-05-24T12:35:18.560Z,100295.72
2023-05-24T12:38:25.530Z,100296.84
2023-05-24T12:41:30.655Z,100297.19
2023-05-24T12:44:36.834Z,100281.94
2023-05-24T12:47:39.356Z,100272.75
2023-05-24T12:50:42.058Z,100280.31
2023-05-24T12:53:44.632Z,100268.13
2023-05-24T12:56:47.394Z,100282.97
2023-05-24T12:59:50.269Z,100266.31
2023-05-24T13:02:56.121Z,100260.66
2023-05-24T13:06:00.004Z,100286.31
2023-05-24T13:09:02.586Z,100264.41
2023-05-24T13:12:06.192Z,100264.72
2023-05-24T13:15:09.106Z,100256.13
2023-05-24T13:18:13.850Z,100262.28
2023-05-24T13:21:16.338Z,100268.25
2023-05-24T13:24:19.765Z,100261.34
2023-05-24T13:27:22.173Z,100275.34
2023-05-24T13:30:27.881Z,100272.66
2023-05-24T13:33:34.198Z,100267.13
2023-05-24T13:36:37.974Z,100266.94
2023-05-24T13:39:40.566Z,100269.97
2023-05-24T13:42:43.044Z,100291.78
2023-05-24T13:45:45.752Z,100274.91
2023-05-24T13:48:48.141Z,100280.00
2023-05-24T13:51:50.822Z,100276.22
2023-05-24T13:54:53.291Z,100270.75
2023-05-24T13:57:57.373Z,100284.84
2023-05-24T14:00:59.862Z,100275.19
2023-05-24T14:04:02.903Z,100266.69
2023-05-24T14:07:08.026Z,100280.91
2023-05-24T14:10:11.462Z,100286.63
2023-05-24T14:13:29.119Z,100292.38
2023-05-24T14:16:37.090Z,100274.56
2023-05-24T14:19:39.847Z,100277.91
2023-05-24T14:22:42.276Z,100283.63
2023-05-24T14:25:46.987Z,100272.38
2023-05-24T14:28:49.436Z,100259.56
2023-05-24T14:31:51.850Z,100266.16
2023-05-24T14:34:54.976Z,100259.19
2023-05-24T14:37:57.444Z,100254.41
2023-05-24T14:41:00.514Z,100279.28
2023-05-24T14:44:02.955Z,100258.69
2023-05-24T14:47:05.726Z,100281.22
2023-05-24T14:50:08.578Z,100282.38
2023-05-24T14:53:13.627Z,100283.28
2023-05-24T14:56:16.085Z,100285.56
2023-05-24T14:59:18.594Z,100266.19
2023-05-24T15:02:21.030Z,100268.19
2023-05-24T15:05:23.569Z,100265.03
2023-05-24T15:08:26.164Z,100271.28
2023-05-24T15:11:29.333Z,100288.34
2023-05-24T15:14:31.753Z,100290.91
2023-05-24T15:17:34.301Z,100291.22
2023-05-24T15:20:37.083Z,100284.31
2023-05-24T15:23:39.520Z,100300.00
2023-05-24T15:26:42.147Z,100278.59
2023-05-24T15:29:44.564Z,100305.03
2023-05-24T15:32:47.611Z,100307.25
2023-05-24T15:35:50.188Z,100299.22
2023-05-24T15:38:52.615Z,100297.56
2023-05-24T15:41:55.100Z,100305.31
2023-05-24T15:44:57.808Z,100274.03
2023-05-24T15:48:01.977Z,100286.22
2023-05-24T15:51:58.146Z,100300.91
2023-05-24T15:54:28.592Z,100288.84
2023-05-24T15:57:31.653Z,100304.28
2023-05-24T16:00:34.107Z,100295.66
2023-05-24T16:03:38.242Z,100318.91
2023-05-24T16:06:40.904Z,100293.22
2023-05-24T16:09:46.229Z,100302.63
2023-05-24T16:12:48.714Z,100302.94
2023-05-24T16:15:51.912Z,100289.78
2023-05-24T16:18:54.490Z,100293.41
2023-05-24T16:21:56.882Z,100330.66
2023-05-24T16:24:59.241Z,100327.16
2023-05-24T16:28:01.634Z,100327.75
2023-05-24T16:31:04.226Z,100312.06
2023-05-24T16:34:06.634Z,100335.56
2023-05-24T16:37:09.022Z,100319.53
2023-05-24T16:40:11.826Z,100338.81
2023-05-24T16:43:14.290Z,100344.47
2023-05-24T16:46:16.695Z,100326.41
2023-05-24T16:49:19.136Z,100329.97
2023-05-24T16:52:21.658Z,100339.84
2023-05-24T16:55:24.062Z,100325.75
2023-05-24T16:58:28.212Z,100341.25
2023-05-24T17:01:31.425Z,100333.34
2023-05-24T17:04:34.756Z,100320.97
2023-05-24T17:07:37.186Z,100341.41
2023-05-24T17:10:39.711Z,100343.22
2023-05-24T17:13:42.415Z,100312.94
2023-05-24T17:16:44.901Z,100333.13
2023-05-24T17:19:47.468Z,100313.94
2023-05-24T17:22:49.978Z,100307.28
2023-05-24T17:25:53.469Z,100294.59
2023-05-24T17:28:56.430Z,100317.31
2023-05-24T17:31:58.987Z,100316.34
2023-05-24T17:35:01.433Z,100314.69
2023-05-24T17:38:04.236Z,100319.72
2023-05-24T17:41:09.904Z,100319.72
2023-05-24T17:44:12.981Z,100337.31
2023-05-24T17:47:15.445Z,100352.66
2023-05-24T17:50:17.796Z,100331.00
2023-05-24T17:53:30.899Z,100329.56
2023-05-24T17:56:34.456Z,100356.34
2023-05-24T17:59:36.875Z,100353.56
2023-05-24T18:02:39.338Z,100367.53
2023-05-24T18:05:42.053Z,100368.00
2023-05-24T18:08:44.720Z,100342.59
2023-05-24T18:11:47.598Z,100366.88
2023-05-24T18:14:50.069Z,100354.72
2023-05-24T18:17:52.514Z,100362.50
2023-05-24T18:20:55.038Z,100357.41
2023-05-24T18:23:57.499Z,100362.91
2023-05-24T18:26:59.981Z,100370.28
2023-05-24T18:30:03.548Z,100370.66
2023-05-24T18:33:08.470Z,100397.38
2023-05-24T18:36:12.683Z,100398.47
2023-05-24T18:39:15.357Z,100397.63
2023-05-24T18:42:17.840Z,100403.53
2023-05-24T18:45:20.235Z,100421.66
2023-05-24T18:48:22.645Z,100403.75
2023-05-24T18:51:25.073Z,100414.47
2023-05-24T18:54:28.817Z,100406.31
2023-05-24T18:57:33.097Z,100422.03
2023-05-24T19:00:35.583Z,100433.03
2023-05-24T19:03:39.245Z,100427.50
2023-05-24T19:06:41.762Z,100441.97
2023-05-24T19:09:44.322Z,100429.09
2023-05-24T19:12:46.782Z,100450.69
2023-05-24T19:15:49.176Z,100433.03
2023-05-24T19:18:51.599Z,100437.06
2023-05-24T19:21:54.055Z,100447.22
2023-05-24T19:24:56.552Z,100443.84
2023-05-24T19:28:00.687Z,100452.84
2023-05-24T19:31:04.387Z,100464.91
2023-05-24T19:34:06.755Z,100442.31
2023-05-24T19:37:09.730Z,100459.09
2023-05-24T19:40:12.208Z,100486.31
2023-05-24T19:43:14.581Z,100479.88
2023-05-24T19:46:17.019Z,100471.59
2023-05-24T19:49:19.470Z,100481.25
2023-05-24T19:52:21.904Z,100492.03
2023-05-24T19:55:24.337Z,100494.69
2023-05-24T19:58:26.745Z,100490.94
2023-05-24T20:01:29.258Z,100494.84
2023-05-24T20:04:31.763Z,100466.28
2023-05-24T20:07:34.449Z,100488.59
2023-05-24T20:10:38.933Z,100488.41
2023-05-24T20:13:41.511Z,100466.84
2023-05-24T20:16:44.098Z,100453.69
2023-05-24T20:19:46.834Z,100466.09
2023-05-24T20:22:49.362Z,100468.47
2023-05-24T20:25:51.784Z,100492.47
2023-05-24T20:28:54.342Z,100491.63
2023-05-24T20:31:56.928Z,100462.94
2023-05-24T20:34:59.472Z,100500.13
2023-05-24T20:38:01.972Z,100497.63
2023-05-24T20:41:04.605Z,100494.69
2023-05-24T20:44:06.984Z,100511.34
2023-05-24T20:47:09.432Z,100517.03
2023-05-24T20:50:14.856Z,100496.56
2023-05-24T20:53:18.728Z,100500.31
2023-05-24T20:56:23.129Z,100492.53
2023-05-24T20:59:26.162Z,100512.00
2023-05-24T21:02:28.780Z,100507.63
2023-05-24T21:05:31.370Z,100475.84
2023-05-24T21:08:33.802Z,100500.59
2023-05-24T21:11:36.445Z,100500.59
2023-05-24T21:14:38.975Z,100521.34
2023-05-24T21:17:41.474Z,100522.13
2023-05-24T21:20:43.925Z,100521.28
2023-05-24T21:23:46.368Z,100515.84
2023-05-24T21:26:48.762Z,100515.94
2023-05-24T21:29:51.184Z,100513.59
2023-05-24T21:32:53.632Z,100515.84
2023-05-24T21:35:56.229Z,100518.28
2023-05-24T21:38:58.826Z,100528.28
2023-05-24T21:42:02.239Z,100523.63
2023-05-24T21:45:05.178Z,100536.97
2023-05-24T21:48:08.843Z,100522.47
2023-05-24T21:51:11.278Z,100532.47
2023-05-24T21:54:13.707Z,100516.56
2023-05-24T21:57:16.172Z,100540.34
2023-05-24T22:00:20.072Z,100533.59
2023-05-24T22:03:22.526Z,100532.75
2023-05-24T22:06:24.932Z,100536.19
2023-05-24T22:09:27.357Z,100520.66
2023-05-24T22:12:29.780Z,100537.69
2023-05-24T22:15:32.206Z,100535.41
2023-05-24T22:18:34.636Z,100533.16
2023-05-24T22:21:37.026Z,100520.63
2023-05-24T22:24:40.929Z,100540.25
2023-05-24T22:27:44.331Z,100516.31
2023-05-24T22:30:49.508Z,100542.75
2023-05-24T22:33:51.909Z,100524.66
2023-05-24T22:36:55.098Z,100523.03
2023-05-24T22:39:57.995Z,100542.16
2023-05-24T22:43:00.477Z,100516.31
2023-05-24T22:46:02.927Z,100522.94
2023-05-24T22:49:05.844Z,100519.75
2023-05-24T22:52:09.015Z,100511.53
2023-05-24T22:55:11.497Z,100538.56
2023-05-24T22:58:14.338Z,100540.84
2023-05-24T23:01:16.925Z,100517.19
2023-05-24T23:04:21.634Z,100545.16
2023-05-24T23:07:25.157Z,100528.75
2023-05-24T23:10:27.601Z,100512.56
2023-05-24T23:13:33.315Z,100559.41
2023-05-24T23:16:45.771Z,100530.00
2023-05-24T23:19:50.524Z,100565.69
2023-05-24T23:22:53.071Z,100552.06
2023-05-24T23:25:56.382Z,100530.69
2023-05-24T23:28:58.864Z,100526.06
2023-05-24T23:32:01.469Z,100550.50
2023-05-24T23:35:04.012Z,100550.06
2023-05-24T23:38:06.638Z,100528.75
2023-05-24T23:41:09.031Z,100550.50
2023-05-24T23:44:11.523Z,100557.56
2023-05-24T23:47:13.929Z,100545.34
2023-05-24T23:50:17.479Z,100557.16
2023-05-24T23:53:19.905Z,100534.47
2023-05-24T23:56:23.279Z,100536.34
2023-05-24T23:59:25.736Z,100557.81
